sensor_id;sensor_type;location;lat;lon;timestamp;temperature;humidity
12477;DHT22;6303;51.504;6.300;2022-10-31T00:00:08;25.20;69.90
12477;DHT22;6303;51.504;6.300;2022-10-31T00:02:43;25.20;69.90
12477;DHT22;6303;51.504;6.300;2022-10-31T00:05:10;25.20;69.90
12477;DHT22;6303;51.504;6.300;2022-10-31T00:07:37;25.20;70.00
12477;DHT22;6303;51.504;6.300;2022-10-31T00:10:05;27.00;71.40
12477;DHT22;6303;51.504;6.300;2022-10-31T00:12:32;25.20;69.90
12477;DHT22;6303;51.504;6.300;2022-10-31T00:14:59;25.20;69.90
12477;DHT22;6303;51.504;6.300;2022-10-31T00:17:26;25.20;69.90
12477;DHT22;6303;51.504;6.300;2022-10-31T00:19:54;25.20;69.90
12477;DHT22;6303;51.504;6.300;2022-10-31T00:22:22;25.20;69.90
12477;DHT22;6303;51.504;6.300;2022-10-31T00:24:49;25.20;69.90
12477;DHT22;6303;51.504;6.300;2022-10-31T00:27:16;25.20;69.90
12477;DHT22;6303;51.504;6.300;2022-10-31T00:29:43;25.20;69.80
12477;DHT22;6303;51.504;6.300;2022-10-31T00:32:10;25.20;69.80
12477;DHT22;6303;51.504;6.300;2022-10-31T00:34:37;25.20;69.90
12477;DHT22;6303;51.504;6.300;2022-10-31T00:37:05;25.20;69.90
12477;DHT22;6303;51.504;6.300;2022-10-31T00:39:34;25.20;69.90
12477;DHT22;6303;51.504;6.300;2022-10-31T00:42:01;25.20;69.90
12477;DHT22;6303;51.504;6.300;2022-10-31T00:44:28;25.20;69.90
12477;DHT22;6303;51.504;6.300;2022-10-31T00:46:55;25.20;69.90
12477;DHT22;6303;51.504;6.300;2022-10-31T00:49:22;25.20;70.00
12477;DHT22;6303;51.504;6.300;2022-10-31T00:51:49;25.20;69.90
12477;DHT22;6303;51.504;6.300;2022-10-31T00:54:18;25.20;69.90
12477;DHT22;6303;51.504;6.300;2022-10-31T00:56:45;25.20;69.90
12477;DHT22;6303;51.504;6.300;2022-10-31T00:59:12;25.20;69.90
12477;DHT22;6303;51.504;6.300;2022-10-31T01:01:40;25.20;70.00
12477;DHT22;6303;51.504;6.300;2022-10-31T01:04:07;25.10;69.90
12477;DHT22;6303;51.504;6.300;2022-10-31T01:06:34;25.10;69.80
12477;DHT22;6303;51.504;6.300;2022-10-31T01:09:01;25.20;70.00
12477;DHT22;6303;51.504;6.300;2022-10-31T01:11:30;25.20;69.90
12477;DHT22;6303;51.504;6.300;2022-10-31T01:13:57;25.20;70.60
12477;DHT22;6303;51.504;6.300;2022-10-31T01:16:26;25.20;69.80
12477;DHT22;6303;51.504;6.300;2022-10-31T01:18:56;25.20;69.80
12477;DHT22;6303;51.504;6.300;2022-10-31T01:21:27;25.10;69.80
12477;DHT22;6303;51.504;6.300;2022-10-31T01:23:58;25.10;69.80
12477;DHT22;6303;51.504;6.300;2022-10-31T01:26:26;25.10;69.80
12477;DHT22;6303;51.504;6.300;2022-10-31T01:28:56;25.10;69.80
12477;DHT22;6303;51.504;6.300;2022-10-31T01:31:25;25.10;69.80
12477;DHT22;6303;51.504;6.300;2022-10-31T01:33:54;25.10;69.70
12477;DHT22;6303;51.504;6.300;2022-10-31T01:36:23;25.10;69.70
12477;DHT22;6303;51.504;6.300;2022-10-31T01:38:51;25.10;69.70
12477;DHT22;6303;51.504;6.300;2022-10-31T01:41:21;25.10;69.60
12477;DHT22;6303;51.504;6.300;2022-10-31T01:43:50;25.10;69.50
12477;DHT22;6303;51.504;6.300;2022-10-31T01:46:21;25.10;69.50
12477;DHT22;6303;51.504;6.300;2022-10-31T01:48:51;25.10;69.50
12477;DHT22;6303;51.504;6.300;2022-10-31T01:51:22;25.10;69.50
12477;DHT22;6303;51.504;6.300;2022-10-31T01:53:51;25.10;69.60
12477;DHT22;6303;51.504;6.300;2022-10-31T01:56:20;25.00;69.50
12477;DHT22;6303;51.504;6.300;2022-10-31T01:58:47;25.00;69.50
12477;DHT22;6303;51.504;6.300;2022-10-31T02:01:17;25.00;69.60
12477;DHT22;6303;51.504;6.300;2022-10-31T02:03:46;25.00;69.60
12477;DHT22;6303;51.504;6.300;2022-10-31T02:06:21;25.00;69.50
12477;DHT22;6303;51.504;6.300;2022-10-31T02:08:50;25.00;69.50
12477;DHT22;6303;51.504;6.300;2022-10-31T02:11:20;25.00;69.60
12477;DHT22;6303;51.504;6.300;2022-10-31T02:13:48;25.00;69.70
12477;DHT22;6303;51.504;6.300;2022-10-31T02:16:15;25.00;69.60
12477;DHT22;6303;51.504;6.300;2022-10-31T02:18:43;25.00;69.70
12477;DHT22;6303;51.504;6.300;2022-10-31T02:21:16;25.00;69.60
12477;DHT22;6303;51.504;6.300;2022-10-31T02:24:14;25.00;69.60
12477;DHT22;6303;51.504;6.300;2022-10-31T02:27:16;25.00;69.60
12477;DHT22;6303;51.504;6.300;2022-10-31T02:30:06;25.00;69.50
12477;DHT22;6303;51.504;6.300;2022-10-31T02:32:54;25.00;69.40
12477;DHT22;6303;51.504;6.300;2022-10-31T02:35:39;25.00;69.50
12477;DHT22;6303;51.504;6.300;2022-10-31T02:38:17;25.00;69.40
12477;DHT22;6303;51.504;6.300;2022-10-31T02:40:52;25.00;69.20
12477;DHT22;6303;51.504;6.300;2022-10-31T02:43:37;25.00;69.20
12477;DHT22;6303;51.504;6.300;2022-10-31T02:46:13;25.00;69.20
12477;DHT22;6303;51.504;6.300;2022-10-31T02:48:44;25.00;69.20
12477;DHT22;6303;51.504;6.300;2022-10-31T02:51:12;24.90;69.20
12477;DHT22;6303;51.504;6.300;2022-10-31T02:53:39;24.90;69.20
12477;DHT22;6303;51.504;6.300;2022-10-31T02:56:12;24.90;69.10
12477;DHT22;6303;51.504;6.300;2022-10-31T02:58:42;24.90;69.10
12477;DHT22;6303;51.504;6.300;2022-10-31T03:01:41;24.90;69.10
12477;DHT22;6303;51.504;6.300;2022-10-31T03:04:37;24.90;69.20
12477;DHT22;6303;51.504;6.300;2022-10-31T03:07:16;24.90;69.10
12477;DHT22;6303;51.504;6.300;2022-10-31T03:09:52;24.90;69.20
12477;DHT22;6303;51.504;6.300;2022-10-31T03:12:28;24.90;69.10
12477;DHT22;6303;51.504;6.300;2022-10-31T03:15:00;24.90;69.00
12477;DHT22;6303;51.504;6.300;2022-10-31T03:17:36;24.90;69.00
12477;DHT22;6303;51.504;6.300;2022-10-31T03:20:07;24.90;69.00
12477;DHT22;6303;51.504;6.300;2022-10-31T03:22:38;24.90;68.90
12477;DHT22;6303;51.504;6.300;2022-10-31T03:25:07;24.90;68.80
12477;DHT22;6303;51.504;6.300;2022-10-31T03:27:36;24.90;68.70
12477;DHT22;6303;51.504;6.300;2022-10-31T03:30:07;24.80;68.70
12477;DHT22;6303;51.504;6.300;2022-10-31T03:32:52;24.90;68.60
12477;DHT22;6303;51.504;6.300;2022-10-31T03:35:24;24.90;68.70
12477;DHT22;6303;51.504;6.300;2022-10-31T03:37:54;24.90;68.60
12477;DHT22;6303;51.504;6.300;2022-10-31T03:40:22;24.80;68.60
12477;DHT22;6303;51.504;6.300;2022-10-31T03:42:56;24.80;68.60
12477;DHT22;6303;51.504;6.300;2022-10-31T03:45:27;24.80;68.60
12477;DHT22;6303;51.504;6.300;2022-10-31T03:47:56;24.80;68.60
12477;DHT22;6303;51.504;6.300;2022-10-31T03:50:31;24.80;68.50
12477;DHT22;6303;51.504;6.300;2022-10-31T03:53:05;24.80;68.50
12477;DHT22;6303;51.504;6.300;2022-10-31T03:55:39;24.80;68.60
12477;DHT22;6303;51.504;6.300;2022-10-31T03:58:09;24.80;68.50
12477;DHT22;6303;51.504;6.300;2022-10-31T04:00:40;24.80;68.50
12477;DHT22;6303;51.504;6.300;2022-10-31T04:03:11;24.80;68.40
12477;DHT22;6303;51.504;6.300;2022-10-31T04:05:45;24.70;68.40
12477;DHT22;6303;51.504;6.300;2022-10-31T04:08:16;24.80;68.50
12477;DHT22;6303;51.504;6.300;2022-10-31T04:10:47;24.70;68.40
12477;DHT22;6303;51.504;6.300;2022-10-31T04:13:21;24.70;68.30
12477;DHT22;6303;51.504;6.300;2022-10-31T04:15:58;24.80;68.30
12477;DHT22;6303;51.504;6.300;2022-10-31T04:18:26;24.70;68.20
12477;DHT22;6303;51.504;6.300;2022-10-31T04:21:02;24.70;68.10
12477;DHT22;6303;51.504;6.300;2022-10-31T04:23:29;24.70;68.00
12477;DHT22;6303;51.504;6.300;2022-10-31T04:25:58;24.70;68.00
12477;DHT22;6303;51.504;6.300;2022-10-31T04:28:25;25.60;68.50
12477;DHT22;6303;51.504;6.300;2022-10-31T04:30:52;24.70;67.70
12477;DHT22;6303;51.504;6.300;2022-10-31T04:33:19;24.70;67.70
12477;DHT22;6303;51.504;6.300;2022-10-31T04:35:47;24.70;67.70
12477;DHT22;6303;51.504;6.300;2022-10-31T04:38:15;24.70;67.60
12477;DHT22;6303;51.504;6.300;2022-10-31T04:40:44;24.70;67.50
12477;DHT22;6303;51.504;6.300;2022-10-31T04:43:20;24.70;67.50
12477;DHT22;6303;51.504;6.300;2022-10-31T04:45:47;24.60;67.30
12477;DHT22;6303;51.504;6.300;2022-10-31T04:48:14;24.60;67.30
12477;DHT22;6303;51.504;6.300;2022-10-31T04:50:44;24.60;67.30
12477;DHT22;6303;51.504;6.300;2022-10-31T04:53:12;24.60;67.30
12477;DHT22;6303;51.504;6.300;2022-10-31T04:56:00;23.40;66.50
12477;DHT22;6303;51.504;6.300;2022-10-31T04:58:36;24.60;67.90
12477;DHT22;6303;51.504;6.300;2022-10-31T05:01:07;24.60;67.10
12477;DHT22;6303;51.504;6.300;2022-10-31T05:03:34;24.60;67.10
12477;DHT22;6303;51.504;6.300;2022-10-31T05:06:01;24.60;67.10
12477;DHT22;6303;51.504;6.300;2022-10-31T05:08:28;24.60;67.10
12477;DHT22;6303;51.504;6.300;2022-10-31T05:11:00;24.60;67.10
12477;DHT22;6303;51.504;6.300;2022-10-31T05:13:28;24.60;67.20
12477;DHT22;6303;51.504;6.300;2022-10-31T05:16:13;24.60;67.30
12477;DHT22;6303;51.504;6.300;2022-10-31T05:18:46;24.60;67.30
12477;DHT22;6303;51.504;6.300;2022-10-31T05:21:28;24.60;67.30
12477;DHT22;6303;51.504;6.300;2022-10-31T05:23:59;24.50;67.20
12477;DHT22;6303;51.504;6.300;2022-10-31T05:26:29;24.50;67.30
12477;DHT22;6303;51.504;6.300;2022-10-31T05:28:56;24.50;67.30
12477;DHT22;6303;51.504;6.300;2022-10-31T05:31:23;24.50;67.30
12477;DHT22;6303;51.504;6.300;2022-10-31T05:33:51;24.50;67.30
12477;DHT22;6303;51.504;6.300;2022-10-31T05:36:50;24.50;67.30
12477;DHT22;6303;51.504;6.300;2022-10-31T05:39:21;24.60;67.20
12477;DHT22;6303;51.504;6.300;2022-10-31T05:41:55;24.50;67.10
12477;DHT22;6303;51.504;6.300;2022-10-31T05:44:25;24.50;67.10
12477;DHT22;6303;51.504;6.300;2022-10-31T05:47:11;24.50;67.00
12477;DHT22;6303;51.504;6.300;2022-10-31T05:49:57;24.50;67.10
12477;DHT22;6303;51.504;6.300;2022-10-31T05:52:24;24.50;67.00
12477;DHT22;6303;51.504;6.300;2022-10-31T05:54:59;24.50;67.10
12477;DHT22;6303;51.504;6.300;2022-10-31T05:57:32;24.50;67.10
12477;DHT22;6303;51.504;6.300;2022-10-31T05:59:59;24.50;67.10
12477;DHT22;6303;51.504;6.300;2022-10-31T06:02:28;24.50;67.50
12477;DHT22;6303;51.504;6.300;2022-10-31T06:05:23;24.50;67.80
12477;DHT22;6303;51.504;6.300;2022-10-31T06:07:51;24.50;68.30
12477;DHT22;6303;51.504;6.300;2022-10-31T06:10:18;24.50;68.40
12477;DHT22;6303;51.504;6.300;2022-10-31T06:12:52;24.50;68.40
12477;DHT22;6303;51.504;6.300;2022-10-31T06:15:23;24.50;68.80
12477;DHT22;6303;51.504;6.300;2022-10-31T06:17:59;24.50;68.90
12477;DHT22;6303;51.504;6.300;2022-10-31T06:20:27;24.50;69.00
12477;DHT22;6303;51.504;6.300;2022-10-31T06:23:00;24.40;69.00
12477;DHT22;6303;51.504;6.300;2022-10-31T06:25:28;24.40;69.10
12477;DHT22;6303;51.504;6.300;2022-10-31T06:27:56;24.40;69.00
12477;DHT22;6303;51.504;6.300;2022-10-31T06:30:34;24.40;69.70
12477;DHT22;6303;51.504;6.300;2022-10-31T06:33:03;24.40;68.90
12477;DHT22;6303;51.504;6.300;2022-10-31T06:35:30;24.40;69.00
12477;DHT22;6303;51.504;6.300;2022-10-31T06:37:58;24.40;68.90
12477;DHT22;6303;51.504;6.300;2022-10-31T06:40:32;24.40;69.00
12477;DHT22;6303;51.504;6.300;2022-10-31T06:43:22;24.40;68.90
12477;DHT22;6303;51.504;6.300;2022-10-31T06:45:56;24.40;69.00
12477;DHT22;6303;51.504;6.300;2022-10-31T06:48:27;24.40;68.90
12477;DHT22;6303;51.504;6.300;2022-10-31T06:51:29;24.40;68.80
12477;DHT22;6303;51.504;6.300;2022-10-31T06:53:56;24.40;68.70
12477;DHT22;6303;51.504;6.300;2022-10-31T06:56:25;24.40;68.50
12477;DHT22;6303;51.504;6.300;2022-10-31T06:58:56;24.40;68.50
12477;DHT22;6303;51.504;6.300;2022-10-31T07:01:46;25.40;69.00
12477;DHT22;6303;51.504;6.300;2022-10-31T07:04:13;24.40;67.30
12477;DHT22;6303;51.504;6.300;2022-10-31T07:06:40;24.40;66.20
12477;DHT22;6303;51.504;6.300;2022-10-31T07:09:07;24.40;65.20
12477;DHT22;6303;51.504;6.300;2022-10-31T07:11:35;24.50;64.80
12477;DHT22;6303;51.504;6.300;2022-10-31T07:14:03;24.40;63.60
12477;DHT22;6303;51.504;6.300;2022-10-31T07:16:30;24.50;63.10
12477;DHT22;6303;51.504;6.300;2022-10-31T07:18:59;24.40;63.20
12477;DHT22;6303;51.504;6.300;2022-10-31T07:21:26;24.50;63.10
12477;DHT22;6303;51.504;6.300;2022-10-31T07:23:53;24.50;62.70
12477;DHT22;6303;51.504;6.300;2022-10-31T07:26:38;24.50;62.60
12477;DHT22;6303;51.504;6.300;2022-10-31T07:29:08;24.50;62.50
12477;DHT22;6303;51.504;6.300;2022-10-31T07:31:35;24.50;62.20
12477;DHT22;6303;51.504;6.300;2022-10-31T07:34:11;24.60;61.80
12477;DHT22;6303;51.504;6.300;2022-10-31T07:37:10;24.60;61.30
12477;DHT22;6303;51.504;6.300;2022-10-31T07:39:37;24.60;60.90
12477;DHT22;6303;51.504;6.300;2022-10-31T07:42:05;24.60;60.60
12477;DHT22;6303;51.504;6.300;2022-10-31T07:44:35;24.60;60.50
12477;DHT22;6303;51.504;6.300;2022-10-31T07:47:28;24.60;60.20
12477;DHT22;6303;51.504;6.300;2022-10-31T07:50:15;24.70;60.10
12477;DHT22;6303;51.504;6.300;2022-10-31T07:53:15;24.70;59.90
12477;DHT22;6303;51.504;6.300;2022-10-31T07:55:52;24.80;59.80
12477;DHT22;6303;51.504;6.300;2022-10-31T07:58:19;24.80;59.70
12477;DHT22;6303;51.504;6.300;2022-10-31T08:00:48;24.80;59.70
12477;DHT22;6303;51.504;6.300;2022-10-31T08:03:25;24.80;59.70
12477;DHT22;6303;51.504;6.300;2022-10-31T08:06:11;24.80;59.70
12477;DHT22;6303;51.504;6.300;2022-10-31T08:08:56;24.80;59.70
12477;DHT22;6303;51.504;6.300;2022-10-31T08:11:23;24.80;59.60
12477;DHT22;6303;51.504;6.300;2022-10-31T08:13:51;24.80;59.70
12477;DHT22;6303;51.504;6.300;2022-10-31T08:16:20;24.80;59.70
12477;DHT22;6303;51.504;6.300;2022-10-31T08:18:58;24.80;59.70
12477;DHT22;6303;51.504;6.300;2022-10-31T08:21:27;24.80;59.90
12477;DHT22;6303;51.504;6.300;2022-10-31T08:23:54;24.80;60.10
12477;DHT22;6303;51.504;6.300;2022-10-31T08:26:23;24.80;60.50
12477;DHT22;6303;51.504;6.300;2022-10-31T08:28:53;24.80;60.60
12477;DHT22;6303;51.504;6.300;2022-10-31T08:31:22;24.80;60.70
12477;DHT22;6303;51.504;6.300;2022-10-31T08:34:12;24.80;60.60
12477;DHT22;6303;51.504;6.300;2022-10-31T08:37:08;24.90;60.70
12477;DHT22;6303;51.504;6.300;2022-10-31T08:39:40;25.00;60.90
12477;DHT22;6303;51.504;6.300;2022-10-31T08:42:07;25.00;61.00
12477;DHT22;6303;51.504;6.300;2022-10-31T08:44:34;25.00;60.90
12477;DHT22;6303;51.504;6.300;2022-10-31T08:47:04;25.00;61.10
12477;DHT22;6303;51.504;6.300;2022-10-31T08:49:33;25.00;61.40
12477;DHT22;6303;51.504;6.300;2022-10-31T08:52:01;25.00;61.50
12477;DHT22;6303;51.504;6.300;2022-10-31T08:54:32;25.00;61.60
12477;DHT22;6303;51.504;6.300;2022-10-31T08:57:18;25.00;61.70
12477;DHT22;6303;51.504;6.300;2022-10-31T08:59:47;25.00;61.80
12477;DHT22;6303;51.504;6.300;2022-10-31T09:02:15;25.00;61.90
12477;DHT22;6303;51.504;6.300;2022-10-31T09:04:42;25.00;61.90
12477;DHT22;6303;51.504;6.300;2022-10-31T09:07:10;25.10;61.80
12477;DHT22;6303;51.504;6.300;2022-10-31T09:09:37;25.20;61.70
12477;DHT22;6303;51.504;6.300;2022-10-31T09:12:05;25.20;61.70
12477;DHT22;6303;51.504;6.300;2022-10-31T09:14:55;25.20;61.70
12477;DHT22;6303;51.504;6.300;2022-10-31T09:17:28;25.20;61.80
12477;DHT22;6303;51.504;6.300;2022-10-31T09:20:20;25.20;62.00
12477;DHT22;6303;51.504;6.300;2022-10-31T09:22:47;25.20;62.10
12477;DHT22;6303;51.504;6.300;2022-10-31T09:25:14;25.20;62.20
12477;DHT22;6303;51.504;6.300;2022-10-31T09:27:48;25.20;62.30
12477;DHT22;6303;51.504;6.300;2022-10-31T09:30:16;25.20;62.30
12477;DHT22;6303;51.504;6.300;2022-10-31T09:32:44;25.20;62.40
12477;DHT22;6303;51.504;6.300;2022-10-31T09:35:11;25.20;62.50
12477;DHT22;6303;51.504;6.300;2022-10-31T09:37:38;25.20;62.50
12477;DHT22;6303;51.504;6.300;2022-10-31T09:40:09;25.20;62.50
12477;DHT22;6303;51.504;6.300;2022-10-31T09:42:51;25.20;62.50
12477;DHT22;6303;51.504;6.300;2022-10-31T09:45:28;25.20;62.40
12477;DHT22;6303;51.504;6.300;2022-10-31T09:48:22;25.30;62.40
12477;DHT22;6303;51.504;6.300;2022-10-31T09:51:18;25.40;62.20
12477;DHT22;6303;51.504;6.300;2022-10-31T09:54:08;23.50;60.80
12477;DHT22;6303;51.504;6.300;2022-10-31T09:56:38;25.50;61.80
12477;DHT22;6303;51.504;6.300;2022-10-31T09:59:10;25.60;61.60
12477;DHT22;6303;51.504;6.300;2022-10-31T10:01:42;25.70;61.50
12477;DHT22;6303;51.504;6.300;2022-10-31T10:04:32;25.70;61.30
12477;DHT22;6303;51.504;6.300;2022-10-31T10:07:16;25.70;61.20
12477;DHT22;6303;51.504;6.300;2022-10-31T10:09:45;25.70;61.10
12477;DHT22;6303;51.504;6.300;2022-10-31T10:12:47;25.70;61.10
12477;DHT22;6303;51.504;6.300;2022-10-31T10:15:40;25.70;61.20
12477;DHT22;6303;51.504;6.300;2022-10-31T10:18:18;25.70;61.40
12477;DHT22;6303;51.504;6.300;2022-10-31T10:20:59;25.70;61.50
12477;DHT22;6303;51.504;6.300;2022-10-31T10:23:42;25.70;61.50
12477;DHT22;6303;51.504;6.300;2022-10-31T10:26:17;25.70;61.40
12477;DHT22;6303;51.504;6.300;2022-10-31T10:28:48;25.80;61.50
12477;DHT22;6303;51.504;6.300;2022-10-31T10:31:20;25.80;61.40
12477;DHT22;6303;51.504;6.300;2022-10-31T10:33:59;25.80;61.30
12477;DHT22;6303;51.504;6.300;2022-10-31T10:36:32;25.80;61.30
12477;DHT22;6303;51.504;6.300;2022-10-31T10:39:04;25.80;61.20
12477;DHT22;6303;51.504;6.300;2022-10-31T10:41:36;25.90;61.30
12477;DHT22;6303;51.504;6.300;2022-10-31T10:44:07;25.90;61.20
12477;DHT22;6303;51.504;6.300;2022-10-31T10:46:41;25.90;61.20
12477;DHT22;6303;51.504;6.300;2022-10-31T10:49:32;25.90;61.30
12477;DHT22;6303;51.504;6.300;2022-10-31T10:52:08;25.90;61.30
12477;DHT22;6303;51.504;6.300;2022-10-31T10:54:53;25.90;61.40
12477;DHT22;6303;51.504;6.300;2022-10-31T10:57:46;25.90;61.40
12477;DHT22;6303;51.504;6.300;2022-10-31T11:00:21;25.80;61.50
12477;DHT22;6303;51.504;6.300;2022-10-31T11:02:49;25.80;61.50
12477;DHT22;6303;51.504;6.300;2022-10-31T11:05:25;25.80;61.40
12477;DHT22;6303;51.504;6.300;2022-10-31T11:07:56;25.70;61.30
12477;DHT22;6303;51.504;6.300;2022-10-31T11:10:23;25.70;61.50
12477;DHT22;6303;51.504;6.300;2022-10-31T11:13:17;25.70;61.70
12477;DHT22;6303;51.504;6.300;2022-10-31T11:15:54;25.60;62.00
12477;DHT22;6303;51.504;6.300;2022-10-31T11:18:25;25.60;62.10
12477;DHT22;6303;51.504;6.300;2022-10-31T11:20:53;25.60;62.10
12477;DHT22;6303;51.504;6.300;2022-10-31T11:23:23;25.60;62.10
12477;DHT22;6303;51.504;6.300;2022-10-31T11:25:54;25.60;62.20
12477;DHT22;6303;51.504;6.300;2022-10-31T11:28:22;25.60;62.30
12477;DHT22;6303;51.504;6.300;2022-10-31T11:30:53;25.70;62.40
12477;DHT22;6303;51.504;6.300;2022-10-31T11:33:26;25.60;62.40
12477;DHT22;6303;51.504;6.300;2022-10-31T11:35:55;25.60;62.50
12477;DHT22;6303;51.504;6.300;2022-10-31T11:38:26;25.70;62.70
12477;DHT22;6303;51.504;6.300;2022-10-31T11:41:00;25.60;62.80
12477;DHT22;6303;51.504;6.300;2022-10-31T11:43:30;25.60;63.10
12477;DHT22;6303;51.504;6.300;2022-10-31T11:45:57;25.60;63.30
12477;DHT22;6303;51.504;6.300;2022-10-31T11:48:25;25.70;63.20
12477;DHT22;6303;51.504;6.300;2022-10-31T11:50:56;25.70;63.10
12477;DHT22;6303;51.504;6.300;2022-10-31T11:53:27;25.70;63.20
12477;DHT22;6303;51.504;6.300;2022-10-31T11:56:09;25.70;63.30
12477;DHT22;6303;51.504;6.300;2022-10-31T11:58:36;25.60;63.30
12477;DHT22;6303;51.504;6.300;2022-10-31T12:01:04;25.70;63.50
12477;DHT22;6303;51.504;6.300;2022-10-31T12:03:42;25.70;63.40
12477;DHT22;6303;51.504;6.300;2022-10-31T12:06:16;25.70;63.50
12477;DHT22;6303;51.504;6.300;2022-10-31T12:08:47;25.70;63.50
12477;DHT22;6303;51.504;6.300;2022-10-31T12:11:30;25.70;63.50
12477;DHT22;6303;51.504;6.300;2022-10-31T12:14:08;25.60;63.50
12477;DHT22;6303;51.504;6.300;2022-10-31T12:16:45;25.60;63.50
12477;DHT22;6303;51.504;6.300;2022-10-31T12:19:20;25.60;63.50
12477;DHT22;6303;51.504;6.300;2022-10-31T12:22:08;26.70;64.30
12477;DHT22;6303;51.504;6.300;2022-10-31T12:25:05;25.60;63.50
12477;DHT22;6303;51.504;6.300;2022-10-31T12:30:56;25.60;63.50
12477;DHT22;6303;51.504;6.300;2022-10-31T12:33:40;25.60;63.50
12477;DHT22;6303;51.504;6.300;2022-10-31T12:36:28;25.60;63.60
12477;DHT22;6303;51.504;6.300;2022-10-31T12:39:24;25.50;63.50
12477;DHT22;6303;51.504;6.300;2022-10-31T12:41:57;25.60;63.50
12477;DHT22;6303;51.504;6.300;2022-10-31T12:45:01;25.50;63.50
12477;DHT22;6303;51.504;6.300;2022-10-31T12:47:51;25.50;63.50
12477;DHT22;6303;51.504;6.300;2022-10-31T12:50:33;25.60;63.60
12477;DHT22;6303;51.504;6.300;2022-10-31T12:53:11;25.60;63.50
12477;DHT22;6303;51.504;6.300;2022-10-31T12:55:52;25.60;63.50
12477;DHT22;6303;51.504;6.300;2022-10-31T12:58:26;25.60;63.50
12477;DHT22;6303;51.504;6.300;2022-10-31T13:01:03;25.60;63.50
12477;DHT22;6303;51.504;6.300;2022-10-31T13:03:38;25.60;63.50
12477;DHT22;6303;51.504;6.300;2022-10-31T13:06:14;25.50;63.40
12477;DHT22;6303;51.504;6.300;2022-10-31T13:08:47;25.50;63.40
12477;DHT22;6303;51.504;6.300;2022-10-31T13:11:16;25.50;63.40
12477;DHT22;6303;51.504;6.300;2022-10-31T13:13:50;25.50;63.40
12477;DHT22;6303;51.504;6.300;2022-10-31T13:16:22;25.50;63.50
12477;DHT22;6303;51.504;6.300;2022-10-31T13:18:55;25.50;63.50
12477;DHT22;6303;51.504;6.300;2022-10-31T13:21:26;25.50;63.50
12477;DHT22;6303;51.504;6.300;2022-10-31T13:23:57;25.50;63.50
12477;DHT22;6303;51.504;6.300;2022-10-31T13:26:35;25.50;63.50
12477;DHT22;6303;51.504;6.300;2022-10-31T13:29:11;25.50;63.60
12477;DHT22;6303;51.504;6.300;2022-10-31T13:31:40;25.50;63.50
12477;DHT22;6303;51.504;6.300;2022-10-31T13:34:17;25.50;63.60
12477;DHT22;6303;51.504;6.300;2022-10-31T13:36:50;25.50;63.50
12477;DHT22;6303;51.504;6.300;2022-10-31T13:39:26;25.50;63.60
12477;DHT22;6303;51.504;6.300;2022-10-31T13:42:01;25.50;63.80
12477;DHT22;6303;51.504;6.300;2022-10-31T13:44:35;25.50;63.80
12477;DHT22;6303;51.504;6.300;2022-10-31T13:47:03;25.50;63.90
12477;DHT22;6303;51.504;6.300;2022-10-31T13:49:38;25.50;63.90
12477;DHT22;6303;51.504;6.300;2022-10-31T13:52:13;25.50;63.90
12477;DHT22;6303;51.504;6.300;2022-10-31T13:54:42;25.50;63.90
12477;DHT22;6303;51.504;6.300;2022-10-31T13:57:16;25.50;63.80
12477;DHT22;6303;51.504;6.300;2022-10-31T13:59:49;25.50;63.90
12477;DHT22;6303;51.504;6.300;2022-10-31T14:02:21;25.50;63.80
12477;DHT22;6303;51.504;6.300;2022-10-31T14:04:54;25.50;63.80
12477;DHT22;6303;51.504;6.300;2022-10-31T14:07:23;25.50;63.90
12477;DHT22;6303;51.504;6.300;2022-10-31T14:09:55;25.50;63.90
12477;DHT22;6303;51.504;6.300;2022-10-31T14:12:26;25.50;63.90
12477;DHT22;6303;51.504;6.300;2022-10-31T14:14:58;25.50;63.90
12477;DHT22;6303;51.504;6.300;2022-10-31T14:17:29;25.50;63.90
12477;DHT22;6303;51.504;6.300;2022-10-31T14:20:24;25.50;63.80
12477;DHT22;6303;51.504;6.300;2022-10-31T14:22:51;25.50;63.90
12477;DHT22;6303;51.504;6.300;2022-10-31T14:25:29;25.50;63.90
12477;DHT22;6303;51.504;6.300;2022-10-31T14:27:58;25.50;63.90
12477;DHT22;6303;51.504;6.300;2022-10-31T14:30:29;25.50;64.00
12477;DHT22;6303;51.504;6.300;2022-10-31T14:32:58;25.50;64.00
12477;DHT22;6303;51.504;6.300;2022-10-31T14:35:37;25.50;64.10
12477;DHT22;6303;51.504;6.300;2022-10-31T14:38:24;25.50;64.10
12477;DHT22;6303;51.504;6.300;2022-10-31T14:44:29;25.50;64.00
12477;DHT22;6303;51.504;6.300;2022-10-31T14:47:07;25.60;64.20
12477;DHT22;6303;51.504;6.300;2022-10-31T14:49:56;25.60;64.20
12477;DHT22;6303;51.504;6.300;2022-10-31T14:52:27;25.60;64.20
12477;DHT22;6303;51.504;6.300;2022-10-31T14:54:56;25.60;64.10
12477;DHT22;6303;51.504;6.300;2022-10-31T14:57:28;25.60;63.80
12477;DHT22;6303;51.504;6.300;2022-10-31T14:59:59;25.60;63.70
12477;DHT22;6303;51.504;6.300;2022-10-31T15:02:32;25.50;63.80
12477;DHT22;6303;51.504;6.300;2022-10-31T15:05:07;25.50;63.90
12477;DHT22;6303;51.504;6.300;2022-10-31T15:07:34;25.60;64.00
12477;DHT22;6303;51.504;6.300;2022-10-31T15:10:04;25.60;64.10
12477;DHT22;6303;51.504;6.300;2022-10-31T15:12:34;25.60;64.00
12477;DHT22;6303;51.504;6.300;2022-10-31T15:15:13;25.50;63.90
12477;DHT22;6303;51.504;6.300;2022-10-31T15:17:47;25.50;64.00
12477;DHT22;6303;51.504;6.300;2022-10-31T15:20:18;25.50;64.00
12477;DHT22;6303;51.504;6.300;2022-10-31T15:22:46;25.50;64.00
12477;DHT22;6303;51.504;6.300;2022-10-31T15:25:18;25.50;64.00
12477;DHT22;6303;51.504;6.300;2022-10-31T15:27:46;25.50;64.80
12477;DHT22;6303;51.504;6.300;2022-10-31T15:30:18;25.50;64.10
12477;DHT22;6303;51.504;6.300;2022-10-31T15:32:48;25.50;64.10
12477;DHT22;6303;51.504;6.300;2022-10-31T15:35:21;25.50;64.10
12477;DHT22;6303;51.504;6.300;2022-10-31T15:37:48;25.50;64.10
12477;DHT22;6303;51.504;6.300;2022-10-31T15:40:17;25.50;64.20
12477;DHT22;6303;51.504;6.300;2022-10-31T15:42:50;25.50;64.00
12477;DHT22;6303;51.504;6.300;2022-10-31T15:45:20;25.50;64.00
12477;DHT22;6303;51.504;6.300;2022-10-31T15:47:55;25.50;64.10
12477;DHT22;6303;51.504;6.300;2022-10-31T15:50:29;25.50;64.00
12477;DHT22;6303;51.504;6.300;2022-10-31T15:52:57;25.50;64.10
12477;DHT22;6303;51.504;6.300;2022-10-31T15:55:27;25.50;64.10
12477;DHT22;6303;51.504;6.300;2022-10-31T15:57:58;25.50;64.10
12477;DHT22;6303;51.504;6.300;2022-10-31T16:00:27;25.50;64.20
12477;DHT22;6303;51.504;6.300;2022-10-31T16:03:08;25.50;64.40
12477;DHT22;6303;51.504;6.300;2022-10-31T16:05:38;25.50;64.40
12477;DHT22;6303;51.504;6.300;2022-10-31T16:11:18;25.40;64.60
12477;DHT22;6303;51.504;6.300;2022-10-31T16:13:57;25.40;64.70
12477;DHT22;6303;51.504;6.300;2022-10-31T16:16:25;25.40;64.80
12477;DHT22;6303;51.504;6.300;2022-10-31T16:18:55;25.40;64.90
12477;DHT22;6303;51.504;6.300;2022-10-31T16:21:25;25.40;65.00
12477;DHT22;6303;51.504;6.300;2022-10-31T16:24:01;25.40;65.00
12477;DHT22;6303;51.504;6.300;2022-10-31T16:26:29;25.30;65.00
12477;DHT22;6303;51.504;6.300;2022-10-31T16:28:58;25.30;65.10
12477;DHT22;6303;51.504;6.300;2022-10-31T16:31:30;25.30;65.10
12477;DHT22;6303;51.504;6.300;2022-10-31T16:34:13;25.30;65.10